Terminal Aerodrome Forecast
Issued by NWS

Home | Current Version | Previous Version | Text Only | Print | Product List | Glossary On
Versions: 1 2 3 4 5 6 7 8 9 10 11 12 13 14 15 16 17 18 19 20
000
FTUS45 KABQ 302344
TAFTCC
TAF
KTCC 302344Z 3100/3124 13007KT P6SM VCTS BKN050CB
     FM310400 10007KT P6SM VCSH OVC050
     FM310800 02006KT 6SM -SHRA SCT025 BKN050
      TEMPO 3109/3112 BKN025
     FM311300 12006KT P6SM BKN070
     FM311600 16007KT P6SM SCT070
     FM312300 16010KT P6SM VCTS BKN070CB=

USA.gov is the U.S. government's official web portal to all federal, state and local government web resources and services.